createdAt,value
2017-05-16T00:08:23.688Z,0
2017-05-16T00:18:33.252Z,0
2017-05-16T00:28:42.862Z,0
2017-05-16T00:38:52.465Z,0
2017-05-16T00:49:02.070Z,0
2017-05-16T00:59:11.689Z,0
2017-05-16T01:09:21.283Z,0
2017-05-16T01:19:30.872Z,0
2017-05-16T01:29:40.483Z,0
2017-05-16T01:39:50.100Z,0
2017-05-16T01:49:59.693Z,0
2017-05-16T02:00:09.297Z,0
2017-05-16T02:10:19.013Z,0
2017-05-16T02:20:28.605Z,0
2017-05-16T02:30:38.291Z,0
2017-05-16T02:40:48.015Z,0
2017-05-16T02:50:57.688Z,0
2017-05-16T03:01:07.397Z,0
2017-05-16T03:11:17.221Z,0
2017-05-16T03:21:26.886Z,0
2017-05-16T03:31:36.614Z,5
2017-05-16T03:41:46.386Z,10
2017-05-16T03:51:56.129Z,15
2017-05-16T04:02:05.892Z,35
2017-05-16T04:12:15.631Z,50
2017-05-16T04:22:25.380Z,55
2017-05-16T04:32:35.097Z,60
2017-05-16T04:42:44.764Z,90
2017-05-16T04:52:54.380Z,145
2017-05-16T05:03:03.909Z,145
2017-05-16T05:13:13.458Z,175
2017-05-16T05:23:22.962Z,225
2017-05-16T05:33:32.444Z,215
2017-05-16T05:43:41.914Z,240
2017-05-16T05:53:51.311Z,240
2017-05-16T06:04:00.663Z,245
2017-05-16T06:14:10.017Z,215
2017-05-16T06:24:19.377Z,225
2017-05-16T06:34:28.655Z,240
2017-05-16T06:44:37.980Z,320
2017-05-16T06:54:47.242Z,410
2017-05-16T07:04:56.381Z,395
2017-05-16T07:15:05.526Z,485
2017-05-16T07:25:14.595Z,695
2017-05-16T07:35:23.498Z,865
2017-05-16T07:45:32.199Z,720
2017-05-16T07:55:40.777Z,760
2017-05-16T08:05:49.288Z,795
2017-05-16T08:15:57.733Z,930
2017-05-16T08:26:06.025Z,950
2017-05-16T08:36:14.254Z,1365
2017-05-16T08:46:22.341Z,1680
2017-05-16T08:56:30.217Z,1345
2017-05-16T09:06:38.023Z,1420
2017-05-16T09:16:45.903Z,1625
2017-05-16T09:26:53.844Z,2000
2017-05-16T09:37:01.531Z,1615
2017-05-16T09:47:09.060Z,900
2017-05-16T09:57:16.642Z,2240
2017-05-16T10:07:24.174Z,1280
2017-05-16T10:17:31.674Z,1470
2017-05-16T10:27:39.157Z,1055
2017-05-16T10:37:46.697Z,1845
2017-05-16T10:47:54.167Z,1565
2017-05-16T10:58:01.617Z,2250
2017-05-16T11:08:08.767Z,1610
2017-05-16T11:18:15.999Z,2050
2017-05-16T11:28:23.213Z,1530
2017-05-16T11:38:30.417Z,1680
2017-05-16T11:48:37.674Z,1095
2017-05-16T11:58:45.060Z,770
2017-05-16T12:08:52.571Z,955
2017-05-16T12:19:00.077Z,1135
2017-05-16T12:29:07.464Z,1295
2017-05-16T12:39:14.804Z,1255
2017-05-16T12:49:22.072Z,1355
2017-05-16T12:59:29.355Z,1295
2017-05-16T13:09:36.627Z,1315
2017-05-16T13:19:43.903Z,1440
2017-05-16T13:29:51.167Z,1430
2017-05-16T13:39:58.418Z,1740
2017-05-16T13:50:05.656Z,1165
2017-05-16T14:00:12.902Z,1335
2017-05-16T14:10:20.082Z,2560
2017-05-16T14:20:27.039Z,1910
2017-05-16T14:30:33.956Z,1630
2017-05-16T14:40:40.991Z,1560
2017-05-16T14:50:48.026Z,1460
2017-05-16T15:00:55.115Z,1895
2017-05-16T15:11:02.229Z,795
2017-05-16T15:21:09.519Z,840
2017-05-16T15:31:16.903Z,765
2017-05-16T15:41:24.296Z,700
2017-05-16T15:51:31.768Z,650
2017-05-16T16:01:39.303Z,565
2017-05-16T16:11:46.897Z,555
2017-05-16T16:21:54.601Z,525
2017-05-16T16:32:02.329Z,490
2017-05-16T16:42:10.118Z,435
2017-05-16T16:52:17.974Z,360
2017-05-16T17:02:25.943Z,315
2017-05-16T17:12:33.952Z,315
2017-05-16T17:22:41.987Z,295
2017-05-16T17:32:50.008Z,270
2017-05-16T17:42:58.068Z,255
2017-05-16T17:53:06.152Z,230
2017-05-16T18:03:14.278Z,170
2017-05-16T18:13:22.490Z,120
2017-05-16T18:23:30.794Z,80
2017-05-16T18:33:39.132Z,60
2017-05-16T18:43:47.495Z,40
2017-05-16T18:53:56.010Z,25
2017-05-16T19:04:04.552Z,15
2017-05-16T19:14:13.221Z,5
2017-05-16T19:24:21.922Z,5
2017-05-16T19:34:30.636Z,0
2017-05-16T19:44:39.349Z,0
2017-05-16T19:54:48.114Z,0
2017-05-16T20:04:57.029Z,0
2017-05-16T20:15:05.820Z,0
2017-05-16T20:25:14.726Z,0
2017-05-16T20:35:23.639Z,0
2017-05-16T20:45:32.540Z,0
2017-05-16T20:55:41.497Z,0
2017-05-16T21:05:50.513Z,0
2017-05-16T21:15:59.533Z,0
2017-05-16T21:26:08.570Z,0
2017-05-16T21:36:17.623Z,0
2017-05-16T21:46:26.668Z,0
2017-05-16T21:56:35.718Z,0
2017-05-16T22:06:44.763Z,0
2017-05-16T22:16:53.868Z,0
2017-05-16T22:27:02.972Z,0
2017-05-16T22:37:12.008Z,0
2017-05-16T22:47:21.064Z,0
2017-05-16T22:57:30.106Z,0
2017-05-16T23:07:39.156Z,0
2017-05-16T23:17:48.164Z,0
2017-05-16T23:27:57.209Z,0
2017-05-16T23:38:06.306Z,0
2017-05-16T23:48:15.387Z,0
2017-05-16T23:58:24.474Z,0
